Time;durP1;ratioP1;P1;durP2;ratioP2;P2;SDS_P1;SDS_P2;PMS_P1;PMS_P2;Temp;Humidity;BMP_temperature;BMP_pressure;BME280_temperature;BME280_humidity;BME280_pressure;Samples;Min_cycle;Max_cycle;Signal;HPM_P1;HPM_P2
2022/09/21 00:01:04;;;;;;;;;11.00;9.00;;;;;;;;5043484;28;45392;-67
2022/09/21 00:03:29;;;;;;;;;11.00;9.67;;;;;;;;5043787;28;45355;-67
2022/09/21 00:06:00;;;;;;;;;10.67;10.67;;;;;;;;5043801;28;45398;-67
2022/09/21 00:08:25;;;;;;;;;10.00;10.00;;;;;;;;5025620;28;46945;-67
2022/09/21 00:10:51;;;;;;;;;8.00;8.00;;;;;;;;5043421;28;45452;-66
2022/09/21 00:13:18;;;;;;;;;10.00;10.00;;;;;;;;5025666;28;45433;-67
2022/09/21 00:15:43;;;;;;;;;12.00;9.00;;;;;;;;5044072;28;45377;-66
2022/09/21 00:18:08;;;;;;;;;7.67;6.67;;;;;;;;5043270;28;45227;-67
2022/09/21 00:20:34;;;;;;;;;13.33;9.33;;;;;;;;5043197;28;45336;-67
2022/09/21 00:22:59;;;;;;;;;9.33;8.33;;;;;;;;5043094;28;45427;-67
2022/09/21 00:25:24;;;;;;;;;9.00;8.33;;;;;;;;5043836;28;45299;-67
2022/09/21 00:27:50;;;;;;;;;6.00;6.00;;;;;;;;5043168;28;46537;-67
2022/09/21 00:30:15;;;;;;;;;8.67;7.00;;;;;;;;5042883;28;45236;-67
2022/09/21 00:32:41;;;;;;;;;9.00;8.00;;;;;;;;5043351;28;45240;-67
2022/09/21 00:35:06;;;;;;;;;10.33;7.67;;;;;;;;5043371;28;45465;-67
2022/09/21 00:37:31;;;;;;;;;9.33;9.33;;;;;;;;5043068;28;45350;-67
2022/09/21 00:39:57;;;;;;;;;7.00;7.00;;;;;;;;5042939;28;45291;-66
2022/09/21 00:42:24;;;;;;;;;7.00;6.67;;;;;;;;5043157;28;45457;-67
2022/09/21 00:44:49;;;;;;;;;8.00;6.67;;;;;;;;5025420;28;45373;-67
2022/09/21 00:47:16;;;;;;;;;8.33;8.00;;;;;;;;5042886;28;45434;-67
2022/09/21 00:49:42;;;;;;;;;10.00;9.33;;;;;;;;5042453;28;45705;-66
2022/09/21 00:52:09;;;;;;;;;9.67;8.67;;;;;;;;5043135;28;45455;-66
2022/09/21 00:54:39;;;;;;;;;7.33;7.00;;;;;;;;5043097;28;45449;-66
2022/09/21 00:57:04;;;;;;;;;7.00;7.00;;;;;;;;5042704;28;45338;-67
2022/09/21 00:59:32;;;;;;;;;6.67;6.67;;;;;;;;5042591;28;45283;-67
2022/09/21 01:01:58;;;;;;;;;12.67;9.00;;;;;;;;5042764;28;45445;-67
2022/09/21 01:04:25;;;;;;;;;9.00;8.33;;;;;;;;5040423;28;45594;-66
2022/09/21 01:06:51;;;;;;;;;8.00;8.00;;;;;;;;5042518;28;46255;-67
2022/09/21 01:09:17;;;;;;;;;8.00;8.00;;;;;;;;5024175;28;45446;-67
2022/09/21 01:11:49;;;;;;;;;5.00;5.00;;;;;;;;5042628;28;45439;-67
2022/09/21 01:14:14;;;;;;;;;6.00;4.00;;;;;;;;5042936;28;45224;-67
2022/09/21 01:16:47;;;;;;;;;10.00;6.00;;;;;;;;5042381;28;45359;-67
2022/09/21 01:19:12;;;;;;;;;6.00;6.00;;;;;;;;5042436;28;45227;-67
2022/09/21 01:22:01;;;;;;;;;7.00;7.00;;;;;;;;5042389;28;45370;-67
2022/09/21 01:24:32;;;;;;;;;14.67;9.67;;;;;;;;4995932;28;45756;-67
2022/09/21 01:27:16;;;;;;;;;8.00;8.00;;;;;;;;5042094;28;45365;-67
2022/09/21 01:30:19;;;;;;;;;8.67;7.00;;;;;;;;5041960;28;45367;-66
2022/09/21 01:32:45;;;;;;;;;11.67;11.67;;;;;;;;4996957;28;45638;-66
2022/09/21 01:35:17;;;;;;;;;13.33;9.33;;;;;;;;4980487;28;45751;-66
2022/09/21 01:38:01;;;;;;;;;10.33;8.67;;;;;;;;5011162;28;46663;-67
2022/09/21 01:40:44;;;;;;;;;14.33;12.00;;;;;;;;5042032;28;45236;-67
2022/09/21 01:43:14;;;;;;;;;8.33;8.33;;;;;;;;5042126;28;45418;-66
2022/09/21 01:45:43;;;;;;;;;15.33;9.33;;;;;;;;5042578;28;45347;-66
2022/09/21 01:48:08;;;;;;;;;14.33;11.33;;;;;;;;5041810;28;46214;-67
2022/09/21 01:50:37;;;;;;;;;8.67;8.33;;;;;;;;5041639;28;45320;-66
2022/09/21 01:53:06;;;;;;;;;10.00;8.00;;;;;;;;5042020;28;45395;-67
2022/09/21 01:55:39;;;;;;;;;8.00;8.00;;;;;;;;5042574;28;45384;-67
2022/09/21 01:58:10;;;;;;;;;8.00;8.00;;;;;;;;5041726;28;45665;-66
2022/09/21 02:00:37;;;;;;;;;9.00;9.00;;;;;;;;5023862;28;45477;-67
2022/09/21 02:03:04;;;;;;;;;7.33;7.33;;;;;;;;5042010;28;45517;-66
2022/09/21 02:05:30;;;;;;;;;10.00;7.67;;;;;;;;5042309;28;45319;-66
2022/09/21 02:07:56;;;;;;;;;5.67;5.67;;;;;;;;5041599;28;45894;-66
2022/09/21 02:10:23;;;;;;;;;7.33;7.33;;;;;;;;5041996;28;45174;-67
2022/09/21 02:12:52;;;;;;;;;9.00;7.67;;;;;;;;5041788;28;45367;-67
2022/09/21 02:15:21;;;;;;;;;6.67;6.67;;;;;;;;5042330;28;45377;-67
2022/09/21 02:17:46;;;;;;;;;8.00;8.00;;;;;;;;5026303;28;46843;-67
2022/09/21 02:20:18;;;;;;;;;11.33;9.67;;;;;;;;5045069;28;45293;-67
2022/09/21 02:22:43;;;;;;;;;8.00;7.00;;;;;;;;5045245;28;45422;-67
2022/09/21 02:25:14;;;;;;;;;8.33;7.00;;;;;;;;5045671;28;45504;-67
2022/09/21 02:27:45;;;;;;;;;13.33;10.00;;;;;;;;5045033;28;45501;-67
2022/09/21 02:30:13;;;;;;;;;8.33;7.67;;;;;;;;5038191;28;45553;-67
2022/09/21 02:32:54;;;;;;;;;7.00;7.00;;;;;;;;5045278;28;45176;-67
2022/09/21 02:35:27;;;;;;;;;6.67;6.67;;;;;;;;5045234;28;45447;-67
2022/09/21 02:37:55;;;;;;;;;13.33;9.00;;;;;;;;5044949;28;45373;-67
2022/09/21 02:40:21;;;;;;;;;8.00;8.00;;;;;;;;5044707;28;45406;-67
2022/09/21 02:42:48;;;;;;;;;10.00;8.00;;;;;;;;5044527;28;45557;-67
2022/09/21 02:45:17;;;;;;;;;12.00;8.67;;;;;;;;5045087;28;45382;-67
2022/09/21 02:47:49;;;;;;;;;8.33;8.00;;;;;;;;5044702;28;45323;-67
2022/09/21 02:50:19;;;;;;;;;9.00;8.00;;;;;;;;5044204;28;45272;-67
2022/09/21 02:52:44;;;;;;;;;13.67;8.67;;;;;;;;5044966;28;45394;-67
2022/09/21 02:55:10;;;;;;;;;9.33;8.33;;;;;;;;5044969;28;45462;-67
2022/09/21 02:57:36;;;;;;;;;13.00;8.00;;;;;;;;5044710;28;45724;-67
2022/09/21 03:00:02;;;;;;;;;12.67;10.33;;;;;;;;5044420;28;45297;-67
2022/09/21 03:02:35;;;;;;;;;10.00;8.33;;;;;;;;5043425;28;45362;-67
2022/09/21 03:05:00;;;;;;;;;8.00;8.00;;;;;;;;5044721;28;45544;-67
2022/09/21 03:07:25;;;;;;;;;11.33;9.67;;;;;;;;5044369;28;45480;-67
2022/09/21 03:09:51;;;;;;;;;10.33;9.00;;;;;;;;5044358;28;45411;-67
2022/09/21 03:12:16;;;;;;;;;14.00;12.00;;;;;;;;5044747;28;45287;-67
2022/09/21 03:14:41;;;;;;;;;12.67;10.33;;;;;;;;5044687;28;45284;-67
2022/09/21 03:17:07;;;;;;;;;13.00;9.00;;;;;;;;5044300;28;46463;-67
2022/09/21 03:19:33;;;;;;;;;8.00;8.00;;;;;;;;5043867;28;45421;-67
2022/09/21 03:21:58;;;;;;;;;13.33;12.00;;;;;;;;5044431;28;45314;-67
2022/09/21 03:27:08;;;;;;;;;9.67;7.67;;;;;;;;5043767;28;45324;-67
2022/09/21 03:29:33;;;;;;;;;11.00;9.00;;;;;;;;5043376;28;45222;-67
2022/09/21 03:31:58;;;;;;;;;15.00;9.67;;;;;;;;5044225;28;45237;-67
2022/09/21 03:34:24;;;;;;;;;12.33;11.33;;;;;;;;5044278;28;45610;-67
2022/09/21 03:36:49;;;;;;;;;10.67;9.00;;;;;;;;5042615;28;46458;-68
2022/09/21 03:39:14;;;;;;;;;12.00;9.00;;;;;;;;5044028;28;45167;-68
2022/09/21 03:41:40;;;;;;;;;12.00;10.00;;;;;;;;5043895;28;45397;-68
2022/09/21 03:44:05;;;;;;;;;15.33;9.00;;;;;;;;5042716;28;45244;-68
2022/09/21 03:46:34;;;;;;;;;11.67;10.33;;;;;;;;5043722;28;46691;-68
2022/09/21 03:48:59;;;;;;;;;14.00;12.00;;;;;;;;5043988;28;45419;-69
2022/09/21 03:51:24;;;;;;;;;12.00;11.00;;;;;;;;5024866;28;45504;-68
2022/09/21 03:53:49;;;;;;;;;12.67;10.67;;;;;;;;5044268;28;45338;-68
2022/09/21 03:56:15;;;;;;;;;19.50;18.25;;;;;;;;5043720;28;45378;-68
2022/09/21 03:58:40;;;;;;;;;18.00;15.25;;;;;;;;5043684;28;45411;-68
2022/09/21 04:01:05;;;;;;;;;9.67;9.00;;;;;;;;5042956;28;45413;-68
2022/09/21 04:03:31;;;;;;;;;13.67;12.67;;;;;;;;5043979;28;45379;-68
2022/09/21 04:05:56;;;;;;;;;13.33;10.00;;;;;;;;5043140;28;46434;-68
2022/09/21 04:08:22;;;;;;;;;14.67;11.00;;;;;;;;5043148;28;45373;-68
2022/09/21 04:10:47;;;;;;;;;14.33;12.00;;;;;;;;5023776;28;45283;-69
2022/09/21 04:13:12;;;;;;;;;13.67;13.33;;;;;;;;5043599;28;45418;-68
2022/09/21 04:15:38;;;;;;;;;10.33;9.00;;;;;;;;5025004;28;47042;-68
2022/09/21 04:18:04;;;;;;;;;15.00;12.00;;;;;;;;5043037;28;45398;-69
2022/09/21 04:20:29;;;;;;;;;13.33;12.00;;;;;;;;5042676;28;45344;-68
2022/09/21 04:22:54;;;;;;;;;13.67;10.67;;;;;;;;5043486;28;45534;-68
2022/09/21 04:25:19;;;;;;;;;10.00;9.33;;;;;;;;5042892;28;46387;-68
2022/09/21 04:27:45;;;;;;;;;11.33;11.33;;;;;;;;5043020;28;45402;-68
2022/09/21 04:30:11;;;;;;;;;11.67;11.33;;;;;;;;5041735;28;45323;-68
2022/09/21 04:32:36;;;;;;;;;15.75;14.50;;;;;;;;5043231;28;45432;-68
2022/09/21 04:35:01;;;;;;;;;16.33;13.00;;;;;;;;5042435;28;45386;-67
2022/09/21 04:37:27;;;;;;;;;17.00;13.00;;;;;;;;5024054;28;45424;-67
2022/09/21 04:39:52;;;;;;;;;14.00;12.00;;;;;;;;5041184;28;45339;-69
2022/09/21 04:42:17;;;;;;;;;16.00;13.33;;;;;;;;5039332;28;45377;-69
2022/09/21 04:44:43;;;;;;;;;15.67;14.67;;;;;;;;5035852;28;46463;-69
2022/09/21 04:47:08;;;;;;;;;15.33;13.00;;;;;;;;5024111;28;45314;-70
2022/09/21 04:49:33;;;;;;;;;17.00;15.00;;;;;;;;5041590;28;45577;-70
2022/09/21 04:51:58;;;;;;;;;12.67;12.67;;;;;;;;5041492;28;45632;-70
2022/09/21 04:54:24;;;;;;;;;18.50;15.25;;;;;;;;5042503;28;45430;-69
2022/09/21 04:56:49;;;;;;;;;15.25;14.50;;;;;;;;5042829;28;45298;-68
2022/09/21 04:59:14;;;;;;;;;27.25;18.75;;;;;;;;5043106;28;45375;-69
2022/09/21 05:01:39;;;;;;;;;14.75;14.25;;;;;;;;5025226;28;45304;-67
2022/09/21 05:04:05;;;;;;;;;14.75;14.50;;;;;;;;5042138;28;46144;-68
2022/09/21 05:06:32;;;;;;;;;19.50;15.50;;;;;;;;5042424;28;45268;-68
2022/09/21 05:11:41;;;;;;;;;19.25;18.00;;;;;;;;5042332;28;45581;-69
2022/09/21 05:14:06;;;;;;;;;18.00;18.00;;;;;;;;5041429;28;45511;-69
2022/09/21 05:16:32;;;;;;;;;14.50;14.50;;;;;;;;5040285;28;45568;-68
2022/09/21 05:18:57;;;;;;;;;19.50;16.25;;;;;;;;5040687;28;45406;-68
2022/09/21 05:21:22;;;;;;;;;16.50;16.50;;;;;;;;5022646;28;45374;-68
2022/09/21 05:23:47;;;;;;;;;18.50;17.25;;;;;;;;5039776;28;45582;-70
2022/09/21 05:26:13;;;;;;;;;16.00;16.00;;;;;;;;5040087;28;45439;-67
2022/09/21 05:28:38;;;;;;;;;16.50;16.00;;;;;;;;5040407;28;45326;-70
2022/09/21 05:31:11;;;;;;;;;19.50;15.50;;;;;;;;5041326;28;45555;-70
2022/09/21 05:33:38;;;;;;;;;17.50;14.25;;;;;;;;5041147;28;45326;-69
2022/09/21 05:36:07;;;;;;;;;17.25;15.75;;;;;;;;5041580;28;45335;-68
2022/09/21 05:38:33;;;;;;;;;21.50;18.25;;;;;;;;5023945;28;45279;-69
2022/09/21 05:40:58;;;;;;;;;16.50;16.50;;;;;;;;5040944;28;45256;-68
2022/09/21 05:43:23;;;;;;;;;19.00;15.50;;;;;;;;5041177;28;45252;-69
2022/09/21 05:45:58;;;;;;;;;16.75;15.00;;;;;;;;5040669;28;45299;-71
2022/09/21 05:48:27;;;;;;;;;15.75;13.00;;;;;;;;5041336;28;45299;-68
2022/09/21 05:50:58;;;;;;;;;16.75;14.75;;;;;;;;5039708;28;45229;-69
2022/09/21 05:53:30;;;;;;;;;19.00;15.25;;;;;;;;5022043;28;46057;-69
2022/09/21 05:55:55;;;;;;;;;15.50;13.75;;;;;;;;5040700;28;45219;-68
2022/09/21 05:58:20;;;;;;;;;16.00;15.00;;;;;;;;5023160;28;45403;-70
2022/09/21 06:00:58;;;;;;;;;16.00;13.00;;;;;;;;5041854;28;45310;-69
2022/09/21 06:03:26;;;;;;;;;17.33;14.33;;;;;;;;5040982;28;45522;-69
2022/09/21 06:05:51;;;;;;;;;14.00;12.00;;;;;;;;5040969;28;45424;-67
2022/09/21 06:08:16;;;;;;;;;21.00;18.50;;;;;;;;5041821;28;45548;-69
2022/09/21 06:10:42;;;;;;;;;14.67;13.67;;;;;;;;5041914;28;45386;-69
2022/09/21 06:13:07;;;;;;;;;12.33;12.33;;;;;;;;5041337;28;46003;-69
2022/09/21 06:15:37;;;;;;;;;17.00;15.00;;;;;;;;5041644;28;45312;-68
2022/09/21 06:18:02;;;;;;;;;3.00;1.50;;;;;;;;5041176;28;45269;-68
2022/09/21 06:20:27;;;;;;;;;18.00;14.67;;;;;;;;5040903;28;45327;-68
2022/09/21 06:22:58;;;;;;;;;14.50;13.25;;;;;;;;5041604;28;45447;-69
2022/09/21 06:25:23;;;;;;;;;19.67;14.67;;;;;;;;5039917;28;45257;-69
2022/09/21 06:27:48;;;;;;;;;17.50;16.00;;;;;;;;5022906;28;45177;-69
2022/09/21 06:30:14;;;;;;;;;17.75;16.00;;;;;;;;5040672;28;45430;-69
2022/09/21 06:32:39;;;;;;;;;17.00;16.75;;;;;;;;5041238;28;46483;-69
2022/09/21 06:35:04;;;;;;;;;16.00;16.00;;;;;;;;5022995;28;45516;-69
2022/09/21 06:37:30;;;;;;;;;16.75;15.00;;;;;;;;5021936;28;45395;-69
2022/09/21 06:39:55;;;;;;;;;14.33;12.00;;;;;;;;5040939;28;45256;-69
2022/09/21 06:42:20;;;;;;;;;17.75;15.50;;;;;;;;5019350;28;47416;-69
2022/09/21 06:44:45;;;;;;;;;21.75;15.75;;;;;;;;5034586;28;45305;-69
2022/09/21 06:47:10;;;;;;;;;17.00;14.67;;;;;;;;5040835;28;45304;-70
2022/09/21 06:49:35;;;;;;;;;17.25;17.25;;;;;;;;5040892;28;45385;-67
2022/09/21 06:52:01;;;;;;;;;19.50;16.25;;;;;;;;5040294;28;45531;-68
2022/09/21 06:54:26;;;;;;;;;19.00;16.00;;;;;;;;5022776;28;45276;-68
2022/09/21 06:56:52;;;;;;;;;18.67;15.67;;;;;;;;5041646;28;45477;-67
2022/09/21 06:59:17;;;;;;;;;19.33;16.00;;;;;;;;5041894;28;45275;-70
2022/09/21 07:01:43;;;;;;;;;15.00;15.00;;;;;;;;5022905;28;48192;-69
2022/09/21 07:04:08;;;;;;;;;17.33;15.00;;;;;;;;5042933;28;45245;-70
2022/09/21 07:06:33;;;;;;;;;16.33;16.00;;;;;;;;5043641;28;45302;-68
2022/09/21 07:08:59;;;;;;;;;17.67;15.00;;;;;;;;5044332;28;45248;-68
2022/09/21 07:11:26;;;;;;;;;19.50;18.00;;;;;;;;5043178;28;45405;-70
2022/09/21 07:13:51;;;;;;;;;21.25;18.00;;;;;;;;5044037;28;45340;-68
2022/09/21 07:16:18;;;;;;;;;12.00;12.00;;;;;;;;5044417;28;45280;-68
2022/09/21 07:18:43;;;;;;;;;15.00;13.33;;;;;;;;5044688;28;45503;-68
2022/09/21 07:21:09;;;;;;;;;14.25;14.25;;;;;;;;5043001;28;45391;-68
2022/09/21 07:23:34;;;;;;;;;16.33;15.00;;;;;;;;5058469;28;45488;-70
2022/09/21 07:26:01;;;;;;;;;16.67;16.00;;;;;;;;5044413;28;45263;-68
2022/09/21 07:28:26;;;;;;;;;18.33;16.00;;;;;;;;5044494;28;45364;-68
2022/09/21 07:30:52;;;;;;;;;14.67;13.33;;;;;;;;5043519;28;46331;-69
2022/09/21 07:33:18;;;;;;;;;17.75;14.25;;;;;;;;5043563;28;45359;-69
2022/09/21 07:35:53;;;;;;;;;23.50;18.25;;;;;;;;5043613;28;45240;-69
2022/09/21 07:38:18;;;;;;;;;17.33;15.00;;;;;;;;5043329;28;45475;-69
2022/09/21 07:40:43;;;;;;;;;19.00;15.33;;;;;;;;5043680;28;45354;-68
2022/09/21 07:43:09;;;;;;;;;13.00;13.00;;;;;;;;5043000;28;45310;-68
2022/09/21 07:45:34;;;;;;;;;22.00;15.33;;;;;;;;5043769;28;45286;-70
2022/09/21 07:48:03;;;;;;;;;20.75;16.50;;;;;;;;5043609;28;45255;-68
2022/09/21 07:50:28;;;;;;;;;13.67;12.67;;;;;;;;5042923;28;45259;-69
2022/09/21 07:52:53;;;;;;;;;16.67;13.33;;;;;;;;5043282;28;45200;-69
2022/09/21 07:55:18;;;;;;;;;16.33;15.67;;;;;;;;5044188;28;45310;-68
2022/09/21 08:00:31;;;;;;;;;17.00;15.00;;;;;;;;5043270;28;45759;-69
2022/09/21 08:02:56;;;;;;;;;15.00;13.00;;;;;;;;5043623;28;45316;-69
2022/09/21 08:05:21;;;;;;;;;13.00;13.00;;;;;;;;5042651;28;45188;-69
2022/09/21 08:07:47;;;;;;;;;19.00;17.67;;;;;;;;5043652;28;45299;-69
2022/09/21 08:10:12;;;;;;;;;18.00;15.00;;;;;;;;5024875;28;47653;-68
2022/09/21 08:12:37;;;;;;;;;18.75;14.25;;;;;;;;5043167;28;45366;-69
2022/09/21 08:15:02;;;;;;;;;15.67;13.33;;;;;;;;5043176;28;45394;-69
2022/09/21 08:17:28;;;;;;;;;21.67;20.33;;;;;;;;5025858;28;45536;-68
2022/09/21 08:19:54;;;;;;;;;27.00;23.75;;;;;;;;5042701;28;46111;-68
2022/09/21 08:22:24;;;;;;;;;14.33;14.00;;;;;;;;5042537;28;45268;-68
2022/09/21 08:24:51;;;;;;;;;18.00;15.00;;;;;;;;5043711;28;45132;-69
2022/09/21 08:27:17;;;;;;;;;17.67;17.00;;;;;;;;5042855;28;45304;-68
2022/09/21 08:29:42;;;;;;;;;19.00;16.00;;;;;;;;5030177;28;47021;-68
2022/09/21 08:32:07;;;;;;;;;18.33;16.33;;;;;;;;5042438;28;45483;-70
2022/09/21 08:34:33;;;;;;;;;12.00;12.00;;;;;;;;5040379;28;45369;-68
2022/09/21 08:36:58;;;;;;;;;16.00;13.00;;;;;;;;5041365;28;45350;-68
2022/09/21 08:39:23;;;;;;;;;18.67;16.67;;;;;;;;5043115;28;46971;-68
2022/09/21 08:42:02;;;;;;;;;14.33;14.33;;;;;;;;5043443;28;45376;-68
2022/09/21 08:44:42;;;;;;;;;16.33;16.00;;;;;;;;5043375;28;45264;-68
2022/09/21 08:47:07;;;;;;;;;21.67;17.33;;;;;;;;5043067;28;45652;-68
2022/09/21 08:49:34;;;;;;;;;13.00;13.00;;;;;;;;5042739;28;45285;-68
2022/09/21 08:52:04;;;;;;;;;12.33;11.00;;;;;;;;5043307;28;45311;-69
2022/09/21 08:54:35;;;;;;;;;16.33;14.67;;;;;;;;5042879;28;45232;-69
2022/09/21 08:57:00;;;;;;;;;12.00;11.00;;;;;;;;5043335;28;45649;-69
2022/09/21 08:59:25;;;;;;;;;15.00;12.00;;;;;;;;5042218;28;46380;-68
2022/09/21 09:01:51;;;;;;;;;14.67;11.67;;;;;;;;5042702;28;45403;-69
2022/09/21 09:04:34;;;;;;;;;11.00;10.33;;;;;;;;5042568;28;45383;-69
2022/09/21 09:06:59;;;;;;;;;13.33;11.00;;;;;;;;5043163;28;45434;-69
2022/09/21 09:09:33;;;;;;;;;10.67;10.00;;;;;;;;5042273;28;45535;-69
2022/09/21 09:12:08;;;;;;;;;12.00;12.00;;;;;;;;5024081;28;45277;-69
2022/09/21 09:14:40;;;;;;;;;5.33;5.00;;;;;;;;5024146;28;45377;-68
2022/09/21 09:17:08;;;;;;;;;15.00;13.67;;;;;;;;5042674;28;45263;-68
2022/09/21 09:19:36;;;;;;;;;13.33;12.00;;;;;;;;5041622;28;45578;-69
2022/09/21 09:22:03;;;;;;;;;13.50;11.50;;;;;;;;5042665;28;45392;-70
2022/09/21 09:24:35;;;;;;;;;9.00;9.00;;;;;;;;5040929;28;45287;-69
2022/09/21 09:27:15;;;;;;;;;12.33;12.33;;;;;;;;5041512;28;45334;-68
2022/09/21 09:29:53;;;;;;;;;11.33;11.33;;;;;;;;5042209;28;45513;-70
2022/09/21 09:32:20;;;;;;;;;9.00;9.00;;;;;;;;5042323;28;45380;-70
2022/09/21 09:34:55;;;;;;;;;10.00;10.00;;;;;;;;5042314;28;45263;-70
2022/09/21 09:37:24;;;;;;;;;10.00;7.67;;;;;;;;5024245;28;45444;-69
2022/09/21 09:39:53;;;;;;;;;9.00;9.00;;;;;;;;5041949;28;46488;-68
2022/09/21 09:42:25;;;;;;;;;14.00;13.00;;;;;;;;5042596;28;45330;-69
2022/09/21 09:45:02;;;;;;;;;12.00;10.00;;;;;;;;5022707;28;45398;-68
2022/09/21 09:47:33;;;;;;;;;11.67;10.67;;;;;;;;5043410;28;45613;-68
2022/09/21 09:50:20;;;;;;;;;6.00;6.00;;;;;;;;5042282;28;45304;-68
2022/09/21 09:52:46;;;;;;;;;11.33;8.00;;;;;;;;5032344;28;45231;-68
2022/09/21 09:55:20;;;;;;;;;10.00;8.33;;;;;;;;5024525;28;45473;-68
2022/09/21 09:57:46;;;;;;;;;9.00;8.67;;;;;;;;5024631;28;45196;-68
2022/09/21 10:00:13;;;;;;;;;8.00;8.00;;;;;;;;5041563;28;45197;-68
2022/09/21 10:02:49;;;;;;;;;9.67;8.00;;;;;;;;5041478;28;45326;-69
2022/09/21 10:05:22;;;;;;;;;8.33;8.00;;;;;;;;5042374;28;45331;-70
2022/09/21 10:07:48;;;;;;;;;9.00;9.00;;;;;;;;5042188;28;45275;-69
2022/09/21 10:10:16;;;;;;;;;12.67;10.00;;;;;;;;5042025;28;45992;-70
2022/09/21 10:12:45;;;;;;;;;10.67;10.00;;;;;;;;5041651;28;45456;-70
2022/09/21 10:15:10;;;;;;;;;12.33;9.00;;;;;;;;5041198;28;45359;-69
2022/09/21 10:17:35;;;;;;;;;9.33;8.33;;;;;;;;5042043;28;45505;-68
2022/09/21 10:20:02;;;;;;;;;8.00;7.00;;;;;;;;5041287;28;46365;-68
2022/09/21 10:22:29;;;;;;;;;10.67;10.67;;;;;;;;5041738;28;45331;-69
2022/09/21 10:24:57;;;;;;;;;10.00;7.00;;;;;;;;5041757;28;45264;-70
2022/09/21 10:27:27;;;;;;;;;8.00;6.00;;;;;;;;5042263;28;45182;-69
2022/09/21 10:29:53;;;;;;;;;11.67;8.00;;;;;;;;5041884;28;45539;-70
2022/09/21 10:32:22;;;;;;;;;10.33;8.00;;;;;;;;5023787;28;45305;-69
2022/09/21 10:35:11;;;;;;;;;7.00;5.00;;;;;;;;5042316;28;45159;-69
2022/09/21 10:37:40;;;;;;;;;6.67;6.67;;;;;;;;5044359;28;45734;-69
2022/09/21 10:40:20;;;;;;;;;5.00;4.00;;;;;;;;5045261;28;45665;-69
2022/09/21 10:42:47;;;;;;;;;6.67;4.00;;;;;;;;5045410;28;45268;-69
2022/09/21 10:45:16;;;;;;;;;6.33;5.00;;;;;;;;5044140;28;45355;-69
2022/09/21 10:47:43;;;;;;;;;6.33;6.33;;;;;;;;5036896;28;45257;-68
2022/09/21 10:50:38;;;;;;;;;4.00;4.00;;;;;;;;5026809;28;48615;-69
2022/09/21 10:53:18;;;;;;;;;8.00;4.00;;;;;;;;5032255;28;45535;-69
2022/09/21 10:55:48;;;;;;;;;4.00;4.00;;;;;;;;5045587;28;45365;-70
2022/09/21 10:58:14;;;;;;;;;6.67;6.67;;;;;;;;5045622;28;45407;-68
2022/09/21 11:00:41;;;;;;;;;6.67;4.00;;;;;;;;5026824;28;45169;-68
2022/09/21 11:03:25;;;;;;;;;4.67;4.67;;;;;;;;5044826;28;45502;-70
2022/09/21 11:05:51;;;;;;;;;6.33;6.33;;;;;;;;5045177;28;45426;-70
2022/09/21 11:08:20;;;;;;;;;5.67;5.00;;;;;;;;5045866;28;45338;-69
2022/09/21 11:10:49;;;;;;;;;4.67;4.67;;;;;;;;5045001;28;46195;-68
2022/09/21 11:13:19;;;;;;;;;9.00;7.67;;;;;;;;5026588;28;45239;-68
2022/09/21 11:15:54;;;;;;;;;7.33;5.00;;;;;;;;5045348;28;45354;-69
2022/09/21 11:18:35;;;;;;;;;8.00;6.00;;;;;;;;5045116;28;45458;-69
2022/09/21 11:21:04;;;;;;;;;4.00;4.00;;;;;;;;5044433;28;45265;-69
2022/09/21 11:23:44;;;;;;;;;5.33;3.67;;;;;;;;5044999;28;45430;-69
2022/09/21 11:26:50;;;;;;;;;3.00;3.00;;;;;;;;5045047;28;45249;-70
2022/09/21 11:29:41;;;;;;;;;5.00;4.00;;;;;;;;4987110;28;45701;-70
2022/09/21 11:32:32;;;;;;;;;5.67;4.00;;;;;;;;4961036;28;46743;-70
2022/09/21 11:34:57;;;;;;;;;4.00;3.67;;;;;;;;5030246;28;45364;-70
2022/09/21 11:37:23;;;;;;;;;3.00;3.00;;;;;;;;5044900;28;45244;-69
2022/09/21 11:39:48;;;;;;;;;5.33;4.00;;;;;;;;5045246;28;45457;-70
2022/09/21 11:42:43;;;;;;;;;5.33;5.00;;;;;;;;5023527;28;47073;-68
2022/09/21 11:45:16;;;;;;;;;2.00;2.00;;;;;;;;5004897;28;45300;-71
2022/09/21 11:48:04;;;;;;;;;3.00;2.33;;;;;;;;5036438;28;45543;-70
2022/09/21 11:50:29;;;;;;;;;5.00;3.00;;;;;;;;5044495;28;45357;-70
2022/09/21 11:53:03;;;;;;;;;6.00;4.00;;;;;;;;5044716;28;45459;-68
2022/09/21 11:55:35;;;;;;;;;2.00;2.00;;;;;;;;5044515;28;45257;-68
2022/09/21 11:58:09;;;;;;;;;2.33;2.33;;;;;;;;5044408;28;45740;-69
2022/09/21 12:00:42;;;;;;;;;3.00;3.00;;;;;;;;5026832;28;45292;-69
2022/09/21 12:03:26;;;;;;;;;3.00;3.00;;;;;;;;5042366;28;46553;-68
2022/09/21 12:06:09;;;;;;;;;4.67;4.67;;;;;;;;5043905;28;45330;-69
2022/09/21 12:08:43;;;;;;;;;4.00;3.00;;;;;;;;5044518;28;45406;-69
2022/09/21 12:11:12;;;;;;;;;3.00;3.00;;;;;;;;5044398;28;45353;-69
2022/09/21 12:13:42;;;;;;;;;5.33;4.33;;;;;;;;5026094;28;47866;-69
2022/09/21 12:16:16;;;;;;;;;5.00;5.00;;;;;;;;5044045;28;45414;-69
2022/09/21 12:18:41;;;;;;;;;3.00;3.00;;;;;;;;5043990;28;45204;-69
2022/09/21 12:21:13;;;;;;;;;4.00;4.00;;;;;;;;5044540;28;45228;-69
2022/09/21 12:24:00;;;;;;;;;5.33;5.00;;;;;;;;5044144;28;45382;-69
2022/09/21 12:26:31;;;;;;;;;5.00;3.67;;;;;;;;5043973;28;45289;-69
2022/09/21 12:29:01;;;;;;;;;3.67;3.67;;;;;;;;5043961;28;45391;-69
2022/09/21 12:31:39;;;;;;;;;3.33;3.33;;;;;;;;5042861;28;45312;-68
2022/09/21 12:34:11;;;;;;;;;6.00;6.00;;;;;;;;5043108;28;46211;-68
2022/09/21 12:37:06;;;;;;;;;6.00;5.00;;;;;;;;5043957;28;45313;-69
2022/09/21 12:39:35;;;;;;;;;3.00;3.00;;;;;;;;5030392;28;45292;-69
2022/09/21 12:42:01;;;;;;;;;8.00;5.00;;;;;;;;5043934;28;45331;-69
2022/09/21 12:44:53;;;;;;;;;4.00;4.00;;;;;;;;5022586;28;47162;-68
2022/09/21 12:47:40;;;;;;;;;5.00;3.00;;;;;;;;5030916;28;45509;-71
2022/09/21 12:50:12;;;;;;;;;3.33;3.00;;;;;;;;5028578;28;45635;-70
2022/09/21 12:52:37;;;;;;;;;6.00;3.00;;;;;;;;5044195;28;45378;-70
2022/09/21 12:55:21;;;;;;;;;2.33;2.00;;;;;;;;5043354;28;45338;-70
2022/09/21 12:57:47;;;;;;;;;1.33;1.33;;;;;;;;5043270;28;45190;-70
2022/09/21 13:00:14;;;;;;;;;4.00;3.00;;;;;;;;5042679;28;45284;-70
2022/09/21 13:02:49;;;;;;;;;4.00;2.00;;;;;;;;5043494;28;45433;-70
2022/09/21 13:05:26;;;;;;;;;0.00;0.00;;;;;;;;5043309;28;45346;-70
2022/09/21 13:08:03;;;;;;;;;5.00;2.67;;;;;;;;5043409;28;45311;-69
2022/09/21 13:10:39;;;;;;;;;4.00;4.00;;;;;;;;5025445;28;45185;-69
2022/09/21 13:13:07;;;;;;;;;3.00;3.00;;;;;;;;5025730;28;45258;-69
2022/09/21 13:15:41;;;;;;;;;3.00;3.00;;;;;;;;5043233;28;45478;-69
2022/09/21 13:18:17;;;;;;;;;1.00;1.00;;;;;;;;5043604;28;45311;-68
2022/09/21 13:20:43;;;;;;;;;3.00;1.33;;;;;;;;5043158;28;45245;-69
2022/09/21 13:23:41;;;;;;;;;2.67;2.33;;;;;;;;5025303;28;45391;-71
2022/09/21 13:26:07;;;;;;;;;4.00;2.67;;;;;;;;5031179;28;45709;-69
2022/09/21 13:28:56;;;;;;;;;4.00;3.00;;;;;;;;5042863;28;45232;-70
2022/09/21 13:31:28;;;;;;;;;3.00;3.00;;;;;;;;5014279;28;45209;-69
2022/09/21 13:34:12;;;;;;;;;2.00;2.00;;;;;;;;5042866;28;45227;-70
2022/09/21 13:36:37;;;;;;;;;3.67;3.67;;;;;;;;5042968;28;45219;-70
2022/09/21 13:39:14;;;;;;;;;6.33;6.33;;;;;;;;5043108;28;45189;-69
2022/09/21 13:41:39;;;;;;;;;4.00;4.00;;;;;;;;5043063;28;45284;-69
2022/09/21 13:44:17;;;;;;;;;12.67;9.00;;;;;;;;5043036;28;45176;-69
2022/09/21 13:46:45;;;;;;;;;3.00;3.00;;;;;;;;5042868;28;45670;-70
2022/09/21 13:49:10;;;;;;;;;4.67;3.00;;;;;;;;5042749;28;45335;-69
2022/09/21 13:52:02;;;;;;;;;6.33;6.33;;;;;;;;5042754;28;45323;-69
2022/09/21 13:54:33;;;;;;;;;2.33;2.00;;;;;;;;5040351;28;45322;-69
2022/09/21 13:57:14;;;;;;;;;3.00;2.00;;;;;;;;5042616;28;45348;-71
2022/09/21 13:59:42;;;;;;;;;3.00;3.00;;;;;;;;5024547;28;46213;-69
2022/09/21 14:02:19;;;;;;;;;3.00;3.00;;;;;;;;5042693;28;45297;-69
2022/09/21 14:04:48;;;;;;;;;4.33;3.33;;;;;;;;5024556;28;45244;-69
2022/09/21 14:07:13;;;;;;;;;3.00;3.00;;;;;;;;5042607;28;46801;-69
2022/09/21 14:09:42;;;;;;;;;2.33;2.33;;;;;;;;5042224;28;45359;-69
2022/09/21 14:12:10;;;;;;;;;4.67;3.00;;;;;;;;5043927;28;45281;-69
2022/09/21 14:14:37;;;;;;;;;2.33;2.33;;;;;;;;5028143;28;45500;-69
2022/09/21 14:17:24;;;;;;;;;4.00;4.00;;;;;;;;5046018;28;45253;-69
2022/09/21 14:19:53;;;;;;;;;7.33;6.00;;;;;;;;5045024;28;45325;-68
2022/09/21 14:22:19;;;;;;;;;2.00;2.00;;;;;;;;5045332;28;45477;-69
2022/09/21 14:24:50;;;;;;;;;3.67;3.67;;;;;;;;5045850;28;45391;-69
2022/09/21 14:27:18;;;;;;;;;2.00;2.00;;;;;;;;5045068;28;45697;-68
2022/09/21 14:29:46;;;;;;;;;2.00;2.00;;;;;;;;5033694;28;45275;-69
2022/09/21 14:32:16;;;;;;;;;3.67;3.67;;;;;;;;5045639;28;45509;-69
2022/09/21 14:34:44;;;;;;;;;3.00;3.00;;;;;;;;5046012;28;45352;-69
2022/09/21 14:37:25;;;;;;;;;3.50;3.00;;;;;;;;5045331;28;45220;-71
2022/09/21 14:39:50;;;;;;;;;2.00;2.00;;;;;;;;5044084;28;45512;-69
2022/09/21 14:42:18;;;;;;;;;1.00;1.00;;;;;;;;5045480;28;45346;-69
2022/09/21 14:44:45;;;;;;;;;3.67;3.67;;;;;;;;5046086;28;45445;-71
2022/09/21 14:47:28;;;;;;;;;2.67;2.67;;;;;;;;5045437;28;45444;-68
2022/09/21 14:50:12;;;;;;;;;1.67;1.67;;;;;;;;5044800;28;45219;-70
2022/09/21 14:52:38;;;;;;;;;1.67;1.67;;;;;;;;5045185;28;45474;-69